sensor_id;sensor_type;location;lat;lon;timestamp;temperature;humidity
16301;DHT22;8258;51.020;4.248;2024-03-06T00:00:06;7.20;99.90
16301;DHT22;8258;51.020;4.248;2024-03-06T00:02:34;7.10;99.90
16301;DHT22;8258;51.020;4.248;2024-03-06T00:05:03;7.00;99.90
16301;DHT22;8258;51.020;4.248;2024-03-06T00:07:30;6.90;99.90
16301;DHT22;8258;51.020;4.248;2024-03-06T00:09:57;6.80;99.90
16301;DHT22;8258;51.020;4.248;2024-03-06T00:12:24;6.70;99.90
16301;DHT22;8258;51.020;4.248;2024-03-06T00:14:52;6.70;99.90
16301;DHT22;8258;51.020;4.248;2024-03-06T00:17:36;6.60;99.90
16301;DHT22;8258;51.020;4.248;2024-03-06T00:40:41;6.20;99.90
16301;DHT22;8258;51.020;4.248;2024-03-06T00:43:13;6.20;99.90
16301;DHT22;8258;51.020;4.248;2024-03-06T00:45:40;6.20;99.90
16301;DHT22;8258;51.020;4.248;2024-03-06T00:48:07;6.20;99.90
16301;DHT22;8258;51.020;4.248;2024-03-06T00:50:34;6.10;99.90
16301;DHT22;8258;51.020;4.248;2024-03-06T00:53:01;6.10;99.90
16301;DHT22;8258;51.020;4.248;2024-03-06T00:55:35;6.00;99.90
16301;DHT22;8258;51.020;4.248;2024-03-06T01:00:44;5.90;99.90
16301;DHT22;8258;51.020;4.248;2024-03-06T01:05:47;5.70;99.90
16301;DHT22;8258;51.020;4.248;2024-03-06T01:08:14;5.60;99.90
16301;DHT22;8258;51.020;4.248;2024-03-06T01:10:43;5.60;99.90
16301;DHT22;8258;51.020;4.248;2024-03-06T01:13:10;5.60;99.90
16301;DHT22;8258;51.020;4.248;2024-03-06T01:15:38;5.60;99.90
16301;DHT22;8258;51.020;4.248;2024-03-06T01:18:06;5.60;99.90
16301;DHT22;8258;51.020;4.248;2024-03-06T01:20:34;5.50;99.90
16301;DHT22;8258;51.020;4.248;2024-03-06T01:23:01;5.40;99.90
16301;DHT22;8258;51.020;4.248;2024-03-06T01:25:28;5.40;99.90
16301;DHT22;8258;51.020;4.248;2024-03-06T01:27:55;5.30;99.90
16301;DHT22;8258;51.020;4.248;2024-03-06T01:30:22;5.20;99.90
16301;DHT22;8258;51.020;4.248;2024-03-06T01:32:49;5.20;99.90
16301;DHT22;8258;51.020;4.248;2024-03-06T01:35:18;5.20;99.90
16301;DHT22;8258;51.020;4.248;2024-03-06T01:37:45;5.30;99.90
16301;DHT22;8258;51.020;4.248;2024-03-06T01:40:12;5.30;99.90
16301;DHT22;8258;51.020;4.248;2024-03-06T01:42:39;5.30;99.90
16301;DHT22;8258;51.020;4.248;2024-03-06T01:45:08;5.20;99.90
16301;DHT22;8258;51.020;4.248;2024-03-06T01:47:35;5.10;99.90
16301;DHT22;8258;51.020;4.248;2024-03-06T01:50:03;5.10;99.90
16301;DHT22;8258;51.020;4.248;2024-03-06T01:52:36;4.90;99.90
16301;DHT22;8258;51.020;4.248;2024-03-06T01:55:04;4.80;99.90
16301;DHT22;8258;51.020;4.248;2024-03-06T01:57:31;4.70;99.90
16301;DHT22;8258;51.020;4.248;2024-03-06T01:59:58;4.60;99.90
16301;DHT22;8258;51.020;4.248;2024-03-06T02:02:26;4.60;99.90
16301;DHT22;8258;51.020;4.248;2024-03-06T02:04:54;4.50;99.90
16301;DHT22;8258;51.020;4.248;2024-03-06T02:07:24;4.40;99.90
16301;DHT22;8258;51.020;4.248;2024-03-06T02:09:53;4.40;99.90
16301;DHT22;8258;51.020;4.248;2024-03-06T02:12:20;4.50;99.90
16301;DHT22;8258;51.020;4.248;2024-03-06T02:14:47;4.50;99.90
16301;DHT22;8258;51.020;4.248;2024-03-06T02:17:14;4.60;99.90
16301;DHT22;8258;51.020;4.248;2024-03-06T02:19:42;4.70;99.90
16301;DHT22;8258;51.020;4.248;2024-03-06T02:22:11;4.70;99.90
16301;DHT22;8258;51.020;4.248;2024-03-06T02:24:40;4.60;99.90
16301;DHT22;8258;51.020;4.248;2024-03-06T02:27:08;4.50;99.90
16301;DHT22;8258;51.020;4.248;2024-03-06T02:29:35;4.40;99.90
16301;DHT22;8258;51.020;4.248;2024-03-06T02:32:04;4.40;99.90
16301;DHT22;8258;51.020;4.248;2024-03-06T02:34:31;4.40;99.90
16301;DHT22;8258;51.020;4.248;2024-03-06T02:36:58;4.40;99.90
16301;DHT22;8258;51.020;4.248;2024-03-06T02:39:26;4.30;99.90
16301;DHT22;8258;51.020;4.248;2024-03-06T02:41:54;4.30;99.90
16301;DHT22;8258;51.020;4.248;2024-03-06T02:44:21;4.20;99.90
16301;DHT22;8258;51.020;4.248;2024-03-06T02:46:48;4.10;99.90
16301;DHT22;8258;51.020;4.248;2024-03-06T02:49:15;4.10;99.90
16301;DHT22;8258;51.020;4.248;2024-03-06T02:51:42;4.10;99.90
16301;DHT22;8258;51.020;4.248;2024-03-06T02:54:10;4.00;99.90
16301;DHT22;8258;51.020;4.248;2024-03-06T02:56:38;4.00;99.90
16301;DHT22;8258;51.020;4.248;2024-03-06T02:59:05;3.90;99.90
16301;DHT22;8258;51.020;4.248;2024-03-06T03:01:32;3.90;99.90
16301;DHT22;8258;51.020;4.248;2024-03-06T03:04:00;4.00;99.90
16301;DHT22;8258;51.020;4.248;2024-03-06T03:06:27;4.00;99.90
16301;DHT22;8258;51.020;4.248;2024-03-06T03:08:55;4.00;99.90
16301;DHT22;8258;51.020;4.248;2024-03-06T03:11:22;3.90;99.90
16301;DHT22;8258;51.020;4.248;2024-03-06T03:13:51;3.90;99.90
16301;DHT22;8258;51.020;4.248;2024-03-06T03:16:18;3.80;99.90
16301;DHT22;8258;51.020;4.248;2024-03-06T03:18:46;3.90;99.90
16301;DHT22;8258;51.020;4.248;2024-03-06T03:21:13;3.90;99.90
16301;DHT22;8258;51.020;4.248;2024-03-06T03:23:40;3.90;99.90
16301;DHT22;8258;51.020;4.248;2024-03-06T03:26:08;3.90;99.90
16301;DHT22;8258;51.020;4.248;2024-03-06T03:28:38;3.80;99.90
16301;DHT22;8258;51.020;4.248;2024-03-06T03:31:07;3.80;99.90
16301;DHT22;8258;51.020;4.248;2024-03-06T03:33:34;3.70;99.90
16301;DHT22;8258;51.020;4.248;2024-03-06T03:36:04;3.60;99.90
16301;DHT22;8258;51.020;4.248;2024-03-06T03:38:33;3.60;99.90
16301;DHT22;8258;51.020;4.248;2024-03-06T03:41:07;3.60;99.90
16301;DHT22;8258;51.020;4.248;2024-03-06T03:43:34;3.50;99.90
16301;DHT22;8258;51.020;4.248;2024-03-06T03:46:01;3.50;99.90
16301;DHT22;8258;51.020;4.248;2024-03-06T03:48:31;3.60;99.90
16301;DHT22;8258;51.020;4.248;2024-03-06T03:51:01;3.50;99.90
16301;DHT22;8258;51.020;4.248;2024-03-06T03:53:29;3.50;99.90
16301;DHT22;8258;51.020;4.248;2024-03-06T03:55:56;3.50;99.90
16301;DHT22;8258;51.020;4.248;2024-03-06T03:58:23;3.50;99.90
16301;DHT22;8258;51.020;4.248;2024-03-06T04:00:50;3.60;99.90
16301;DHT22;8258;51.020;4.248;2024-03-06T04:03:18;3.60;99.90
16301;DHT22;8258;51.020;4.248;2024-03-06T04:05:48;3.50;99.90
16301;DHT22;8258;51.020;4.248;2024-03-06T04:08:15;3.50;99.90
16301;DHT22;8258;51.020;4.248;2024-03-06T04:10:42;3.50;99.90
16301;DHT22;8258;51.020;4.248;2024-03-06T04:13:11;3.40;99.90
16301;DHT22;8258;51.020;4.248;2024-03-06T04:15:38;3.40;99.90
16301;DHT22;8258;51.020;4.248;2024-03-06T04:18:05;3.40;99.90
16301;DHT22;8258;51.020;4.248;2024-03-06T04:20:32;3.30;99.90
16301;DHT22;8258;51.020;4.248;2024-03-06T04:23:01;3.20;99.90
16301;DHT22;8258;51.020;4.248;2024-03-06T04:25:28;3.30;99.90
16301;DHT22;8258;51.020;4.248;2024-03-06T04:27:55;3.20;99.90
16301;DHT22;8258;51.020;4.248;2024-03-06T04:30:23;3.20;99.90
16301;DHT22;8258;51.020;4.248;2024-03-06T04:32:50;3.10;99.90
16301;DHT22;8258;51.020;4.248;2024-03-06T04:35:17;3.10;99.90
16301;DHT22;8258;51.020;4.248;2024-03-06T04:37:44;3.00;99.90
16301;DHT22;8258;51.020;4.248;2024-03-06T04:40:12;3.00;99.90
16301;DHT22;8258;51.020;4.248;2024-03-06T04:42:45;2.90;99.90
16301;DHT22;8258;51.020;4.248;2024-03-06T04:45:15;3.00;99.90
16301;DHT22;8258;51.020;4.248;2024-03-06T04:47:42;2.90;99.90
16301;DHT22;8258;51.020;4.248;2024-03-06T04:50:10;2.80;99.90
16301;DHT22;8258;51.020;4.248;2024-03-06T04:52:37;2.80;99.90
16301;DHT22;8258;51.020;4.248;2024-03-06T04:55:05;2.80;99.90
16301;DHT22;8258;51.020;4.248;2024-03-06T04:57:34;2.90;99.90
16301;DHT22;8258;51.020;4.248;2024-03-06T05:00:02;2.90;99.90
16301;DHT22;8258;51.020;4.248;2024-03-06T05:02:31;2.90;99.90
16301;DHT22;8258;51.020;4.248;2024-03-06T05:05:00;2.80;99.90
16301;DHT22;8258;51.020;4.248;2024-03-06T05:07:28;2.70;99.90
16301;DHT22;8258;51.020;4.248;2024-03-06T05:09:55;2.60;99.90
16301;DHT22;8258;51.020;4.248;2024-03-06T05:12:22;2.60;99.90
16301;DHT22;8258;51.020;4.248;2024-03-06T05:14:51;2.60;99.90
16301;DHT22;8258;51.020;4.248;2024-03-06T05:17:19;2.60;99.90
16301;DHT22;8258;51.020;4.248;2024-03-06T05:19:47;2.70;99.90
16301;DHT22;8258;51.020;4.248;2024-03-06T05:22:15;2.70;99.90
16301;DHT22;8258;51.020;4.248;2024-03-06T05:24:42;2.70;99.90
16301;DHT22;8258;51.020;4.248;2024-03-06T05:27:09;2.70;99.90
16301;DHT22;8258;51.020;4.248;2024-03-06T05:29:38;2.60;99.90
16301;DHT22;8258;51.020;4.248;2024-03-06T05:32:07;2.50;99.90
16301;DHT22;8258;51.020;4.248;2024-03-06T05:34:34;2.60;99.90
16301;DHT22;8258;51.020;4.248;2024-03-06T05:37:02;2.50;99.90
16301;DHT22;8258;51.020;4.248;2024-03-06T05:39:30;2.50;99.90
16301;DHT22;8258;51.020;4.248;2024-03-06T05:42:00;2.50;99.90
16301;DHT22;8258;51.020;4.248;2024-03-06T05:44:29;2.50;99.90
16301;DHT22;8258;51.020;4.248;2024-03-06T05:46:57;2.50;99.90
16301;DHT22;8258;51.020;4.248;2024-03-06T05:49:26;2.60;99.90
16301;DHT22;8258;51.020;4.248;2024-03-06T05:51:54;2.60;99.90
16301;DHT22;8258;51.020;4.248;2024-03-06T05:54:21;2.60;99.90
16301;DHT22;8258;51.020;4.248;2024-03-06T05:56:49;2.50;99.90
16301;DHT22;8258;51.020;4.248;2024-03-06T05:59:17;2.40;99.90
16301;DHT22;8258;51.020;4.248;2024-03-06T06:01:44;2.40;99.90
16301;DHT22;8258;51.020;4.248;2024-03-06T06:04:11;2.40;99.90
16301;DHT22;8258;51.020;4.248;2024-03-06T06:06:40;2.50;99.90
16301;DHT22;8258;51.020;4.248;2024-03-06T06:09:07;2.60;99.90
16301;DHT22;8258;51.020;4.248;2024-03-06T06:11:38;2.60;99.90
16301;DHT22;8258;51.020;4.248;2024-03-06T06:14:05;2.50;99.90
16301;DHT22;8258;51.020;4.248;2024-03-06T06:16:36;2.50;99.90
16301;DHT22;8258;51.020;4.248;2024-03-06T06:19:03;2.40;99.90
16301;DHT22;8258;51.020;4.248;2024-03-06T06:21:31;2.40;99.90
16301;DHT22;8258;51.020;4.248;2024-03-06T06:23:59;2.50;99.90
16301;DHT22;8258;51.020;4.248;2024-03-06T06:26:26;2.60;99.90
16301;DHT22;8258;51.020;4.248;2024-03-06T06:28:53;2.60;99.90
16301;DHT22;8258;51.020;4.248;2024-03-06T06:31:20;2.60;99.90
16301;DHT22;8258;51.020;4.248;2024-03-06T06:33:48;2.70;99.90
16301;DHT22;8258;51.020;4.248;2024-03-06T06:36:15;2.70;99.90
16301;DHT22;8258;51.020;4.248;2024-03-06T06:38:42;2.70;99.90
16301;DHT22;8258;51.020;4.248;2024-03-06T06:41:11;2.80;99.90
16301;DHT22;8258;51.020;4.248;2024-03-06T06:43:38;3.10;99.90
16301;DHT22;8258;51.020;4.248;2024-03-06T06:46:06;3.40;99.90
16301;DHT22;8258;51.020;4.248;2024-03-06T06:48:33;4.00;99.90
16301;DHT22;8258;51.020;4.248;2024-03-06T06:51:00;4.40;99.90
16301;DHT22;8258;51.020;4.248;2024-03-06T06:53:28;4.70;99.90
16301;DHT22;8258;51.020;4.248;2024-03-06T06:55:55;5.10;99.90
16301;DHT22;8258;51.020;4.248;2024-03-06T06:58:24;5.40;99.90
16301;DHT22;8258;51.020;4.248;2024-03-06T07:00:53;5.60;99.90
16301;DHT22;8258;51.020;4.248;2024-03-06T07:03:19;5.60;99.90
16301;DHT22;8258;51.020;4.248;2024-03-06T07:05:48;5.70;99.90
16301;DHT22;8258;51.020;4.248;2024-03-06T07:08:15;5.50;99.90
16301;DHT22;8258;51.020;4.248;2024-03-06T07:10:42;5.50;99.90
16301;DHT22;8258;51.020;4.248;2024-03-06T07:13:09;5.80;99.90
16301;DHT22;8258;51.020;4.248;2024-03-06T07:15:38;6.40;99.90
16301;DHT22;8258;51.020;4.248;2024-03-06T07:18:05;7.20;99.90
16301;DHT22;8258;51.020;4.248;2024-03-06T07:20:32;8.00;99.90
16301;DHT22;8258;51.020;4.248;2024-03-06T07:22:59;8.90;99.90
16301;DHT22;8258;51.020;4.248;2024-03-06T07:25:26;9.40;99.90
16301;DHT22;8258;51.020;4.248;2024-03-06T07:27:53;9.60;99.90
16301;DHT22;8258;51.020;4.248;2024-03-06T07:30:20;9.90;99.90
16301;DHT22;8258;51.020;4.248;2024-03-06T07:32:49;10.40;99.90
16301;DHT22;8258;51.020;4.248;2024-03-06T07:35:16;10.50;99.90
16301;DHT22;8258;51.020;4.248;2024-03-06T07:37:43;10.60;99.90
16301;DHT22;8258;51.020;4.248;2024-03-06T07:40:11;10.60;99.90
16301;DHT22;8258;51.020;4.248;2024-03-06T07:42:38;10.70;99.90
16301;DHT22;8258;51.020;4.248;2024-03-06T07:45:06;10.50;99.90
16301;DHT22;8258;51.020;4.248;2024-03-06T07:47:34;10.40;99.90
16301;DHT22;8258;51.020;4.248;2024-03-06T07:50:05;10.90;99.90
16301;DHT22;8258;51.020;4.248;2024-03-06T07:52:33;11.50;99.90
16301;DHT22;8258;51.020;4.248;2024-03-06T07:55:03;11.70;99.90
16301;DHT22;8258;51.020;4.248;2024-03-06T07:57:31;11.60;99.90
16301;DHT22;8258;51.020;4.248;2024-03-06T07:59:58;12.20;99.90
16301;DHT22;8258;51.020;4.248;2024-03-06T08:02:25;12.80;99.90
16301;DHT22;8258;51.020;4.248;2024-03-06T08:04:53;12.60;99.90
16301;DHT22;8258;51.020;4.248;2024-03-06T08:07:22;11.90;99.90
16301;DHT22;8258;51.020;4.248;2024-03-06T08:09:49;11.70;99.90
16301;DHT22;8258;51.020;4.248;2024-03-06T08:12:16;11.60;99.90
16301;DHT22;8258;51.020;4.248;2024-03-06T08:14:46;11.50;99.90
16301;DHT22;8258;51.020;4.248;2024-03-06T08:17:13;11.70;99.90
16301;DHT22;8258;51.020;4.248;2024-03-06T08:19:40;11.70;99.90
16301;DHT22;8258;51.020;4.248;2024-03-06T08:22:07;11.90;99.90
16301;DHT22;8258;51.020;4.248;2024-03-06T08:24:35;11.80;99.90
16301;DHT22;8258;51.020;4.248;2024-03-06T08:27:03;12.00;99.90
16301;DHT22;8258;51.020;4.248;2024-03-06T08:29:30;12.20;99.90
16301;DHT22;8258;51.020;4.248;2024-03-06T08:31:57;12.70;99.90
16301;DHT22;8258;51.020;4.248;2024-03-06T08:34:26;12.80;99.90
16301;DHT22;8258;51.020;4.248;2024-03-06T08:36:53;12.90;99.90
16301;DHT22;8258;51.020;4.248;2024-03-06T08:39:21;13.40;99.90
16301;DHT22;8258;51.020;4.248;2024-03-06T08:41:49;13.80;99.90
16301;DHT22;8258;51.020;4.248;2024-03-06T08:44:16;14.50;99.90
16301;DHT22;8258;51.020;4.248;2024-03-06T08:46:43;14.60;99.90
16301;DHT22;8258;51.020;4.248;2024-03-06T08:49:10;14.80;99.90
16301;DHT22;8258;51.020;4.248;2024-03-06T08:51:37;14.50;99.90
16301;DHT22;8258;51.020;4.248;2024-03-06T08:54:04;14.90;99.90
16301;DHT22;8258;51.020;4.248;2024-03-06T08:56:33;15.60;99.90
16301;DHT22;8258;51.020;4.248;2024-03-06T08:59:01;16.00;99.90
16301;DHT22;8258;51.020;4.248;2024-03-06T09:01:29;16.40;99.90
16301;DHT22;8258;51.020;4.248;2024-03-06T09:03:56;16.50;99.90
16301;DHT22;8258;51.020;4.248;2024-03-06T09:06:23;16.80;99.90
16301;DHT22;8258;51.020;4.248;2024-03-06T09:08:54;16.60;99.90
16301;DHT22;8258;51.020;4.248;2024-03-06T09:11:21;17.00;99.90
16301;DHT22;8258;51.020;4.248;2024-03-06T09:13:49;17.30;99.90
16301;DHT22;8258;51.020;4.248;2024-03-06T09:16:17;16.90;99.90
16301;DHT22;8258;51.020;4.248;2024-03-06T09:18:44;16.60;99.90
16301;DHT22;8258;51.020;4.248;2024-03-06T09:21:11;16.60;99.90
16301;DHT22;8258;51.020;4.248;2024-03-06T09:23:38;17.00;99.90
16301;DHT22;8258;51.020;4.248;2024-03-06T09:26:05;17.60;99.90
16301;DHT22;8258;51.020;4.248;2024-03-06T09:28:32;17.30;99.90
16301;DHT22;8258;51.020;4.248;2024-03-06T09:30:59;17.70;99.90
16301;DHT22;8258;51.020;4.248;2024-03-06T09:33:28;17.60;99.90
16301;DHT22;8258;51.020;4.248;2024-03-06T09:38:32;18.00;99.90
16301;DHT22;8258;51.020;4.248;2024-03-06T09:41:03;17.30;99.90
16301;DHT22;8258;51.020;4.248;2024-03-06T09:43:39;17.50;99.90
16301;DHT22;8258;51.020;4.248;2024-03-06T09:51:29;18.50;99.90
16301;DHT22;8258;51.020;4.248;2024-03-06T09:54:05;18.40;99.90
16301;DHT22;8258;51.020;4.248;2024-03-06T09:56:36;17.50;99.90
16301;DHT22;8258;51.020;4.248;2024-03-06T09:59:15;17.60;99.90
16301;DHT22;8258;51.020;4.248;2024-03-06T10:01:54;18.10;99.90
16301;DHT22;8258;51.020;4.248;2024-03-06T10:04:24;17.80;99.90
16301;DHT22;8258;51.020;4.248;2024-03-06T10:07:08;17.70;99.90
16301;DHT22;8258;51.020;4.248;2024-03-06T10:09:39;18.10;99.90
16301;DHT22;8258;51.020;4.248;2024-03-06T10:12:08;18.40;99.90
16301;DHT22;8258;51.020;4.248;2024-03-06T10:32:53;20.30;96.40
16301;DHT22;8258;51.020;4.248;2024-03-06T10:35:24;19.80;96.30
16301;DHT22;8258;51.020;4.248;2024-03-06T10:37:53;19.30;98.20
16301;DHT22;8258;51.020;4.248;2024-03-06T10:40:22;19.50;98.50
16301;DHT22;8258;51.020;4.248;2024-03-06T10:42:50;20.20;96.80
16301;DHT22;8258;51.020;4.248;2024-03-06T11:03:35;21.00;89.20
16301;DHT22;8258;51.020;4.248;2024-03-06T11:06:09;19.00;93.10
16301;DHT22;8258;51.020;4.248;2024-03-06T11:08:39;17.50;99.90
16301;DHT22;8258;51.020;4.248;2024-03-06T11:11:20;16.20;99.90
16301;DHT22;8258;51.020;4.248;2024-03-06T11:13:59;15.30;99.90
16301;DHT22;8258;51.020;4.248;2024-03-06T11:16:28;15.00;99.90
16301;DHT22;8258;51.020;4.248;2024-03-06T11:19:11;16.70;99.90
16301;DHT22;8258;51.020;4.248;2024-03-06T11:21:48;17.40;99.90
16301;DHT22;8258;51.020;4.248;2024-03-06T11:26:59;18.30;99.10
16301;DHT22;8258;51.020;4.248;2024-03-06T11:34:56;19.30;97.30
16301;DHT22;8258;51.020;4.248;2024-03-06T11:37:34;18.10;99.90
16301;DHT22;8258;51.020;4.248;2024-03-06T11:40:10;16.90;99.90
16301;DHT22;8258;51.020;4.248;2024-03-06T11:42:46;16.20;99.90
16301;DHT22;8258;51.020;4.248;2024-03-06T11:45:16;15.60;99.90
16301;DHT22;8258;51.020;4.248;2024-03-06T11:47:57;15.50;99.90
16301;DHT22;8258;51.020;4.248;2024-03-06T11:50:28;16.20;99.90
16301;DHT22;8258;51.020;4.248;2024-03-06T11:52:55;17.60;99.90
16301;DHT22;8258;51.020;4.248;2024-03-06T11:55:26;17.10;99.90
16301;DHT22;8258;51.020;4.248;2024-03-06T12:10:56;20.90;85.60
16301;DHT22;8258;51.020;4.248;2024-03-06T12:18:35;18.80;92.80
16301;DHT22;8258;51.020;4.248;2024-03-06T12:21:07;18.10;94.50
16301;DHT22;8258;51.020;4.248;2024-03-06T12:23:49;17.20;98.40
16301;DHT22;8258;51.020;4.248;2024-03-06T12:54:55;18.90;92.80
16301;DHT22;8258;51.020;4.248;2024-03-06T12:57:22;19.40;93.00
16301;DHT22;8258;51.020;4.248;2024-03-06T12:59:49;21.00;87.20
16301;DHT22;8258;51.020;4.248;2024-03-06T13:02:16;21.90;75.50
16301;DHT22;8258;51.020;4.248;2024-03-06T13:04:43;22.90;57.40
16301;DHT22;8258;51.020;4.248;2024-03-06T13:07:11;23.20;49.50
16301;DHT22;8258;51.020;4.248;2024-03-06T13:09:38;24.50;47.90
16301;DHT22;8258;51.020;4.248;2024-03-06T13:12:06;24.50;35.80
16301;DHT22;8258;51.020;4.248;2024-03-06T13:14:34;25.00;34.20
16301;DHT22;8258;51.020;4.248;2024-03-06T13:17:01;25.60;29.90
16301;DHT22;8258;51.020;4.248;2024-03-06T13:19:28;25.30;27.40
16301;DHT22;8258;51.020;4.248;2024-03-06T13:21:55;25.20;28.70
16301;DHT22;8258;51.020;4.248;2024-03-06T13:24:22;24.90;23.50
16301;DHT22;8258;51.020;4.248;2024-03-06T13:27:12;23.10;29.70
16301;DHT22;8258;51.020;4.248;2024-03-06T13:29:39;21.20;31.60
16301;DHT22;8258;51.020;4.248;2024-03-06T13:32:06;19.80;38.70
16301;DHT22;8258;51.020;4.248;2024-03-06T13:34:36;19.10;48.20
16301;DHT22;8258;51.020;4.248;2024-03-06T13:37:03;18.20;48.30
16301;DHT22;8258;51.020;4.248;2024-03-06T13:39:32;17.10;65.30
16301;DHT22;8258;51.020;4.248;2024-03-06T13:41:59;16.70;71.90
16301;DHT22;8258;51.020;4.248;2024-03-06T13:44:28;16.30;81.40
16301;DHT22;8258;51.020;4.248;2024-03-06T13:46:55;15.80;85.40
16301;DHT22;8258;51.020;4.248;2024-03-06T13:49:36;15.60;90.30
16301;DHT22;8258;51.020;4.248;2024-03-06T13:52:03;15.30;91.60
16301;DHT22;8258;51.020;4.248;2024-03-06T13:54:32;15.30;93.50
16301;DHT22;8258;51.020;4.248;2024-03-06T13:56:59;15.10;96.40
16301;DHT22;8258;51.020;4.248;2024-03-06T13:59:30;15.40;96.20
16301;DHT22;8258;51.020;4.248;2024-03-06T14:01:58;16.00;93.00
16301;DHT22;8258;51.020;4.248;2024-03-06T14:04:26;15.70;93.20
16301;DHT22;8258;51.020;4.248;2024-03-06T14:06:53;15.50;94.50
16301;DHT22;8258;51.020;4.248;2024-03-06T14:09:20;15.40;95.30
16301;DHT22;8258;51.020;4.248;2024-03-06T14:11:49;15.40;99.40
16301;DHT22;8258;51.020;4.248;2024-03-06T14:14:16;15.60;99.00
16301;DHT22;8258;51.020;4.248;2024-03-06T14:16:45;15.90;98.50
16301;DHT22;8258;51.020;4.248;2024-03-06T14:19:12;16.10;96.50
16301;DHT22;8258;51.020;4.248;2024-03-06T14:21:39;16.10;96.50
16301;DHT22;8258;51.020;4.248;2024-03-06T14:24:06;15.90;96.40
16301;DHT22;8258;51.020;4.248;2024-03-06T14:26:33;15.70;97.80
16301;DHT22;8258;51.020;4.248;2024-03-06T14:29:01;15.80;96.70
16301;DHT22;8258;51.020;4.248;2024-03-06T14:31:29;15.60;95.40
16301;DHT22;8258;51.020;4.248;2024-03-06T14:33:57;15.50;96.80
16301;DHT22;8258;51.020;4.248;2024-03-06T14:36:24;15.50;98.50
16301;DHT22;8258;51.020;4.248;2024-03-06T14:38:51;15.50;98.90
16301;DHT22;8258;51.020;4.248;2024-03-06T14:41:19;15.50;99.80
16301;DHT22;8258;51.020;4.248;2024-03-06T14:43:46;15.40;96.90
16301;DHT22;8258;51.020;4.248;2024-03-06T14:46:13;15.10;97.00
16301;DHT22;8258;51.020;4.248;2024-03-06T14:48:40;15.10;97.90
16301;DHT22;8258;51.020;4.248;2024-03-06T14:51:08;14.90;97.90
16301;DHT22;8258;51.020;4.248;2024-03-06T14:53:35;14.90;98.70
16301;DHT22;8258;51.020;4.248;2024-03-06T14:56:03;15.00;98.80
16301;DHT22;8258;51.020;4.248;2024-03-06T14:58:30;15.10;96.80
16301;DHT22;8258;51.020;4.248;2024-03-06T15:00:57;15.10;97.10
16301;DHT22;8258;51.020;4.248;2024-03-06T15:03:24;14.90;97.00
16301;DHT22;8258;51.020;4.248;2024-03-06T15:05:52;14.90;98.10
16301;DHT22;8258;51.020;4.248;2024-03-06T15:08:21;14.90;97.30
16301;DHT22;8258;51.020;4.248;2024-03-06T15:10:49;14.90;96.50
16301;DHT22;8258;51.020;4.248;2024-03-06T15:13:17;14.80;97.50
16301;DHT22;8258;51.020;4.248;2024-03-06T15:15:44;14.60;97.90
16301;DHT22;8258;51.020;4.248;2024-03-06T15:18:12;14.60;99.20
16301;DHT22;8258;51.020;4.248;2024-03-06T15:20:39;14.60;98.60
16301;DHT22;8258;51.020;4.248;2024-03-06T15:23:06;14.50;98.50
16301;DHT22;8258;51.020;4.248;2024-03-06T15:25:34;15.40;97.30
16301;DHT22;8258;51.020;4.248;2024-03-06T15:28:01;16.20;95.90
16301;DHT22;8258;51.020;4.248;2024-03-06T15:30:28;16.10;93.80
16301;DHT22;8258;51.020;4.248;2024-03-06T15:32:57;16.10;93.80
16301;DHT22;8258;51.020;4.248;2024-03-06T15:35:24;16.00;95.10
16301;DHT22;8258;51.020;4.248;2024-03-06T15:37:51;15.60;94.70
16301;DHT22;8258;51.020;4.248;2024-03-06T15:40:20;15.30;97.10
16301;DHT22;8258;51.020;4.248;2024-03-06T15:42:48;15.30;98.30
16301;DHT22;8258;51.020;4.248;2024-03-06T15:45:15;15.20;94.80
16301;DHT22;8258;51.020;4.248;2024-03-06T15:47:42;15.00;96.60
16301;DHT22;8258;51.020;4.248;2024-03-06T15:50:11;14.90;96.40
16301;DHT22;8258;51.020;4.248;2024-03-06T15:52:38;14.90;97.00
16301;DHT22;8258;51.020;4.248;2024-03-06T15:55:06;14.80;96.70
16301;DHT22;8258;51.020;4.248;2024-03-06T15:57:33;14.70;97.70
16301;DHT22;8258;51.020;4.248;2024-03-06T16:00:02;14.60;98.20
16301;DHT22;8258;51.020;4.248;2024-03-06T16:02:31;14.60;98.30
16301;DHT22;8258;51.020;4.248;2024-03-06T16:04:58;14.60;97.60
16301;DHT22;8258;51.020;4.248;2024-03-06T16:07:25;14.60;98.10
16301;DHT22;8258;51.020;4.248;2024-03-06T16:09:53;14.60;98.80
16301;DHT22;8258;51.020;4.248;2024-03-06T16:12:20;14.40;99.20
16301;DHT22;8258;51.020;4.248;2024-03-06T16:14:47;14.30;99.60
16301;DHT22;8258;51.020;4.248;2024-03-06T16:17:16;14.10;99.20
16301;DHT22;8258;51.020;4.248;2024-03-06T16:19:43;14.00;99.90
16301;DHT22;8258;51.020;4.248;2024-03-06T16:22:10;13.70;99.90
16301;DHT22;8258;51.020;4.248;2024-03-06T16:24:37;13.60;99.90
16301;DHT22;8258;51.020;4.248;2024-03-06T16:27:06;13.70;99.90
16301;DHT22;8258;51.020;4.248;2024-03-06T16:29:33;13.60;99.90
16301;DHT22;8258;51.020;4.248;2024-03-06T16:32:00;13.50;99.90
16301;DHT22;8258;51.020;4.248;2024-03-06T16:34:29;13.50;99.90
16301;DHT22;8258;51.020;4.248;2024-03-06T16:36:58;13.30;99.90
16301;DHT22;8258;51.020;4.248;2024-03-06T16:39:25;13.30;99.90
16301;DHT22;8258;51.020;4.248;2024-03-06T16:41:52;13.20;99.90
16301;DHT22;8258;51.020;4.248;2024-03-06T16:44:19;13.10;99.90
16301;DHT22;8258;51.020;4.248;2024-03-06T16:46:46;13.30;99.90
16301;DHT22;8258;51.020;4.248;2024-03-06T16:49:13;13.30;99.90
16301;DHT22;8258;51.020;4.248;2024-03-06T16:51:42;13.10;99.90
16301;DHT22;8258;51.020;4.248;2024-03-06T16:54:09;12.90;99.90
16301;DHT22;8258;51.020;4.248;2024-03-06T16:56:37;12.80;99.90
16301;DHT22;8258;51.020;4.248;2024-03-06T16:59:05;12.60;99.90
16301;DHT22;8258;51.020;4.248;2024-03-06T17:01:32;12.50;99.90
16301;DHT22;8258;51.020;4.248;2024-03-06T17:04:00;12.40;99.90
16301;DHT22;8258;51.020;4.248;2024-03-06T17:06:27;12.30;99.90
16301;DHT22;8258;51.020;4.248;2024-03-06T17:08:55;12.10;99.90
16301;DHT22;8258;51.020;4.248;2024-03-06T17:11:22;12.00;99.90
16301;DHT22;8258;51.020;4.248;2024-03-06T17:13:50;11.80;99.90
16301;DHT22;8258;51.020;4.248;2024-03-06T17:16:17;11.70;99.90
16301;DHT22;8258;51.020;4.248;2024-03-06T17:18:44;11.60;99.90
16301;DHT22;8258;51.020;4.248;2024-03-06T17:21:11;11.50;99.90
16301;DHT22;8258;51.020;4.248;2024-03-06T17:23:38;11.40;99.90
16301;DHT22;8258;51.020;4.248;2024-03-06T17:26:06;11.30;99.90
16301;DHT22;8258;51.020;4.248;2024-03-06T17:28:36;11.20;99.90
16301;DHT22;8258;51.020;4.248;2024-03-06T17:31:05;11.10;99.90
16301;DHT22;8258;51.020;4.248;2024-03-06T17:33:33;10.80;99.90
16301;DHT22;8258;51.020;4.248;2024-03-06T17:36:00;10.70;99.90
16301;DHT22;8258;51.020;4.248;2024-03-06T17:38:26;10.50;99.90
16301;DHT22;8258;51.020;4.248;2024-03-06T17:40:55;10.40;99.90
16301;DHT22;8258;51.020;4.248;2024-03-06T17:43:23;10.30;99.90
16301;DHT22;8258;51.020;4.248;2024-03-06T17:45:50;10.20;99.90
16301;DHT22;8258;51.020;4.248;2024-03-06T17:48:17;10.10;99.90
16301;DHT22;8258;51.020;4.248;2024-03-06T17:50:44;10.10;99.90
16301;DHT22;8258;51.020;4.248;2024-03-06T17:53:12;10.10;99.90
16301;DHT22;8258;51.020;4.248;2024-03-06T17:55:39;9.90;99.90
16301;DHT22;8258;51.020;4.248;2024-03-06T17:58:06;9.80;99.90
16301;DHT22;8258;51.020;4.248;2024-03-06T18:00:34;9.80;99.90
16301;DHT22;8258;51.020;4.248;2024-03-06T18:03:02;9.60;99.90